Estación Meteorológica de la Universidad de Murcia
Estación Meteorológica de la Universidad de Murcia
Universidad de Murcia
 

Temperatura ambienteTemperatura ambiente

 

Máxima: 16,6 ºC a las 17:40:00 del día 03/12/2020
Mínima: 2,9 ºC a las 08:45:00 del día 03/12/2020

||Temperatura máxima últimos meses|| ---- ||Temperatura mínima últimos meses||


Temperatura máxima

  • 1 - 16,6 ºC del día 03/12/2020
  • 2 - 17,7 ºC del día 02/12/2020
  • 3 - 19,9 ºC del día 01/12/2020
  • 4 - 19,5 ºC del día 30/11/2020
  • 5 - 19,5 ºC del día 29/11/2020
  • 6 - 17,6 ºC del día 28/11/2020
  • 7 - 16,6 ºC del día 27/11/2020
  • 8 - 20 ºC del día 26/11/2020
  • 9 - 19,3 ºC del día 25/11/2020
  • 10 - 18,3 ºC del día 24/11/2020
  • 11 - 19,2 ºC del día 23/11/2020
  • 12 - 19,3 ºC del día 22/11/2020
  • 13 - 20,1 ºC del día 21/11/2020
  • 14 - 21,4 ºC del día 20/11/2020
  • 15 - 21,7 ºC del día 19/11/2020
  • 16 - 22,9 ºC del día 18/11/2020
  • 17 - 24,8 ºC del día 17/11/2020
  • 18 - 25,6 ºC del día 16/11/2020
  • 19 - 25,6 ºC del día 15/11/2020
  • 20 - 20,4 ºC del día 14/11/2020
  • 21 - 23,5 ºC del día 13/11/2020
  • 22 - 21,7 ºC del día 12/11/2020
  • 23 - 22 ºC del día 11/11/2020
  • 24 - 23,7 ºC del día 10/11/2020
  • 25 - 24,4 ºC del día 09/11/2020
  • 26 - 24 ºC del día 08/11/2020
  • 27 - 24,3 ºC del día 07/11/2020
  • 28 - 24,3 ºC del día 06/11/2020
  • 29 - 21,1 ºC del día 05/11/2020
  • 30 - 22 ºC del día 04/11/2020
  • 31 - 23,2 ºC del día 03/11/2020
  • 32 - 27,7 ºC del día 02/11/2020
  • 33 - 27,7 ºC del día 01/11/2020
  • 34 - 27,4 ºC del día 31/10/2020
  • 35 - 26,7 ºC del día 30/10/2020
  • 36 - 25,7 ºC del día 29/10/2020
  • 37 - 25,5 ºC del día 28/10/2020
  • 38 - 21,5 ºC del día 27/10/2020
  • 39 - 20,3 ºC del día 26/10/2020
  • 40 - 25,7 ºC del día 25/10/2020
  • 41 - 24,4 ºC del día 24/10/2020
  • 42 - 23,7 ºC del día 23/10/2020
  • 43 - 19,9 ºC del día 22/10/2020
  • 44 - 28,3 ºC del día 21/10/2020
  • 45 - 24,3 ºC del día 20/10/2020
  • 46 - 24,4 ºC del día 19/10/2020
  • 47 - 25,1 ºC del día 18/10/2020
  • 48 - 25 ºC del día 17/10/2020
  • 49 - 23,5 ºC del día 16/10/2020
  • 50 - 23,2 ºC del día 15/10/2020
  • 51 - 24,9 ºC del día 14/10/2020
  • 52 - 28 ºC del día 13/10/2020
  • 53 - 23,3 ºC del día 12/10/2020
  • 54 - 25,4 ºC del día 11/10/2020
  • 55 - 26,2 ºC del día 10/10/2020
  • 56 - 28,3 ºC del día 09/10/2020
  • 57 - 27,9 ºC del día 08/10/2020
  • 58 - 32,1 ºC del día 07/10/2020
  • 59 - 29,4 ºC del día 06/10/2020

||Volver al inicio de la página||


Temperatura mínima

  • 1 - 2,9 ºC del día 03/12/2020
  • 2 - 9,4 ºC del día 02/12/2020
  • 3 - 9,3 ºC del día 01/12/2020
  • 4 - 9,9 ºC del día 30/11/2020
  • 5 - 7,1 ºC del día 29/11/2020
  • 6 - 10,1 ºC del día 28/11/2020
  • 7 - 11,5 ºC del día 27/11/2020
  • 8 - 12 ºC del día 26/11/2020
  • 9 - 7,1 ºC del día 25/11/2020
  • 10 - 6,1 ºC del día 24/11/2020
  • 11 - 6,2 ºC del día 23/11/2020
  • 12 - 7,4 ºC del día 22/11/2020
  • 13 - 10 ºC del día 21/11/2020
  • 14 - 9,7 ºC del día 20/11/2020
  • 15 - 12,6 ºC del día 19/11/2020
  • 16 - 14,2 ºC del día 18/11/2020
  • 17 - 14,7 ºC del día 17/11/2020
  • 18 - 12,6 ºC del día 16/11/2020
  • 19 - 12,6 ºC del día 15/11/2020
  • 20 - 14,9 ºC del día 14/11/2020
  • 21 - 15,2 ºC del día 13/11/2020
  • 22 - 9,9 ºC del día 12/11/2020
  • 23 - 10,5 ºC del día 11/11/2020
  • 24 - 11,8 ºC del día 10/11/2020
  • 25 - 12,9 ºC del día 09/11/2020
  • 26 - 11 ºC del día 08/11/2020
  • 27 - 15,4 ºC del día 07/11/2020
  • 28 - 15,4 ºC del día 06/11/2020
  • 29 - 16,7 ºC del día 05/11/2020
  • 30 - 14,8 ºC del día 04/11/2020
  • 31 - 11 ºC del día 03/11/2020
  • 32 - 10,9 ºC del día 02/11/2020
  • 33 - 10,6 ºC del día 01/11/2020
  • 34 - 10,3 ºC del día 31/10/2020
  • 35 - 11,3 ºC del día 30/10/2020
  • 36 - 11,5 ºC del día 29/10/2020
  • 37 - 11,9 ºC del día 28/10/2020
  • 38 - 9,7 ºC del día 27/10/2020
  • 39 - 13,8 ºC del día 26/10/2020
  • 40 - 9,8 ºC del día 25/10/2020
  • 41 - 11 ºC del día 24/10/2020
  • 42 - 13,8 ºC del día 23/10/2020
  • 43 - 17 ºC del día 22/10/2020
  • 44 - 16,5 ºC del día 21/10/2020
  • 45 - 12,9 ºC del día 20/10/2020
  • 46 - 10,8 ºC del día 19/10/2020
  • 47 - 10,5 ºC del día 18/10/2020
  • 48 - 9,3 ºC del día 17/10/2020
  • 49 - 10,1 ºC del día 16/10/2020
  • 50 - 11,9 ºC del día 15/10/2020
  • 51 - 12,8 ºC del día 14/10/2020
  • 52 - 11,3 ºC del día 13/10/2020
  • 53 - 12,3 ºC del día 12/10/2020
  • 54 - 15,1 ºC del día 11/10/2020
  • 55 - 15,4 ºC del día 10/10/2020
  • 56 - 15,6 ºC del día 09/10/2020
  • 57 - 15,2 ºC del día 08/10/2020
  • 58 - 14,7 ºC del día 07/10/2020
  • 59 - 12,3 ºC del día 06/10/2020

 

|| Humedad relativa|| Velocidad y dirección del viento|| Precipitación|| Radiación Solar Global y PAR|| Temperatura y humedad del suelo|| Presión atmosférica|| Más información|| Volver a la página principal|| Volver al inicio de la página||


Estación Meteorológica de la Universidad de Murcia
http://estacion.um.es/
Informacion actualizada a: 05/12/2020 a las 06:19:00